createdAt,value
2019-03-10T00:05:49.015Z,24.4
2019-03-10T00:15:48.227Z,24.1
2019-03-10T00:25:47.441Z,23.9
2019-03-10T00:35:46.656Z,24.3
2019-03-10T00:45:45.866Z,24.2
2019-03-10T00:55:45.872Z,23.8
2019-03-10T01:05:45.084Z,25.1
2019-03-10T01:15:44.299Z,25.7
2019-03-10T01:25:43.509Z,25.3
2019-03-10T01:35:42.764Z,24.4
2019-03-10T01:45:41.933Z,24.6
2019-03-10T01:55:41.146Z,24.4
2019-03-10T02:05:40.357Z,24.2
2019-03-10T02:15:39.570Z,24.1
2019-03-10T02:25:38.782Z,24.1
2019-03-10T02:35:37.995Z,24.4
2019-03-10T02:45:37.207Z,24.3
2019-03-10T02:55:36.471Z,24.4
2019-03-10T03:05:35.630Z,23.9
2019-03-10T03:15:34.848Z,24.4
2019-03-10T03:25:34.070Z,23.7
2019-03-10T03:35:33.266Z,24.5
2019-03-10T03:45:32.476Z,26.1
2019-03-10T03:55:31.696Z,26
2019-03-10T04:05:30.901Z,25.8
2019-03-10T04:15:30.133Z,25.4
2019-03-10T04:25:29.324Z,25.3
2019-03-10T04:35:28.531Z,24.4
2019-03-10T04:45:27.743Z,24.5
2019-03-10T04:55:26.949Z,24.4
2019-03-10T05:05:26.158Z,24.3
2019-03-10T05:15:25.370Z,24.2
2019-03-10T05:25:24.583Z,24.1
2019-03-10T05:35:23.789Z,24.2
2019-03-10T05:45:22.999Z,24.1
2019-03-10T05:55:22.209Z,24.3
2019-03-10T06:05:21.417Z,24.8
2019-03-10T06:15:20.629Z,25
2019-03-10T06:25:19.840Z,25.4
2019-03-10T06:35:19.050Z,25.4
2019-03-10T06:45:18.266Z,25.4
2019-03-10T06:55:17.474Z,25.2
2019-03-10T07:05:16.696Z,25.5
2019-03-10T07:15:15.899Z,25.9
2019-03-10T07:25:15.111Z,26.1
2019-03-10T07:35:14.375Z,26.6
2019-03-10T07:45:13.536Z,26.9
2019-03-10T07:55:12.747Z,26.9
2019-03-10T08:05:11.961Z,26.8
2019-03-10T08:15:11.174Z,26.1
2019-03-10T08:25:10.392Z,26
2019-03-10T08:35:09.602Z,26.2
2019-03-10T08:45:08.820Z,26.4
2019-03-10T08:55:08.030Z,26.3
2019-03-10T09:05:07.244Z,26.2
2019-03-10T09:15:06.459Z,26.5
2019-03-10T09:25:05.672Z,26.8
2019-03-10T09:35:04.888Z,26.7
2019-03-10T09:45:04.108Z,26.8
2019-03-10T09:55:03.312Z,26.7
2019-03-10T10:05:02.527Z,26.3
2019-03-10T10:15:01.750Z,26.1
2019-03-10T10:25:00.953Z,26.3
2019-03-10T10:35:00.357Z,26.8
2019-03-10T10:44:59.380Z,27
2019-03-10T10:54:58.606Z,26.9
2019-03-10T11:04:57.808Z,26.7
2019-03-10T11:14:57.031Z,26.6
2019-03-10T11:24:56.236Z,26.7
2019-03-10T11:34:55.450Z,27
2019-03-10T11:44:54.665Z,27
2019-03-10T11:54:53.878Z,26.7
2019-03-10T12:04:53.095Z,25.4
2019-03-10T12:14:52.312Z,25.7
2019-03-10T12:24:51.536Z,26.2
2019-03-10T12:37:42.614Z,25.8
2019-03-10T12:47:41.824Z,25.7
2019-03-10T12:57:41.035Z,25.6
2019-03-10T13:07:40.249Z,25.3
2019-03-10T13:17:39.461Z,25.4
2019-03-10T13:27:38.671Z,25.8
2019-03-10T13:37:37.884Z,26.4
2019-03-10T13:47:37.163Z,26.7
2019-03-10T13:57:36.453Z,26.9
2019-03-10T14:07:35.741Z,26.7
2019-03-10T14:17:35.035Z,26.5
2019-03-10T14:27:34.320Z,26.5
2019-03-10T14:37:33.578Z,26.8
2019-03-10T14:47:32.787Z,26.4
2019-03-10T14:57:32.052Z,25.7
2019-03-10T15:07:31.214Z,25.8
2019-03-10T15:17:30.428Z,25.8
2019-03-10T15:27:29.642Z,25.3
2019-03-10T15:37:28.856Z,25.4
2019-03-10T15:47:28.073Z,25.9
2019-03-10T15:57:27.284Z,25.8
2019-03-10T16:07:26.498Z,25.4
2019-03-10T16:17:25.716Z,25.3
2019-03-10T16:27:24.927Z,25.7
2019-03-10T16:37:24.142Z,24.4
2019-03-10T16:47:24.303Z,24.8
2019-03-10T16:57:24.924Z,24.9
2019-03-10T17:07:22.736Z,25.1
2019-03-10T17:17:21.947Z,25.6
2019-03-10T17:27:21.161Z,25.7
2019-03-10T17:37:20.416Z,26.1
2019-03-10T17:47:19.598Z,26.2
2019-03-10T17:57:18.803Z,25.4
2019-03-10T18:07:18.019Z,24.9
2019-03-10T18:17:17.239Z,25.3
2019-03-10T18:27:16.459Z,25.7
2019-03-10T18:37:15.688Z,26.2
2019-03-10T18:47:14.903Z,26.4
2019-03-10T18:57:14.127Z,26
2019-03-10T19:07:13.351Z,25.6
2019-03-10T19:17:12.575Z,25.2
2019-03-10T19:27:11.798Z,25.5
2019-03-10T19:37:11.027Z,25.3
2019-03-10T19:47:10.297Z,25.2
2019-03-10T19:57:09.459Z,25.7
2019-03-10T20:07:08.680Z,25.5
2019-03-10T20:17:07.896Z,25.4
2019-03-10T20:27:07.119Z,25.4
2019-03-10T20:37:06.339Z,25.4
2019-03-10T20:47:05.550Z,25.6
2019-03-10T20:57:04.766Z,25.1
2019-03-10T21:08:39.176Z,25.3
2019-03-10T21:18:38.388Z,25.3
2019-03-10T21:28:37.606Z,25.3
2019-03-10T21:38:36.824Z,25.2
2019-03-10T21:48:36.045Z,25.2
2019-03-10T21:58:35.264Z,25.1
2019-03-10T22:08:34.480Z,24.8
2019-03-10T22:18:33.779Z,24.9
2019-03-10T22:28:33.100Z,25.4
2019-03-10T22:38:32.367Z,25.2
2019-03-10T22:48:31.656Z,25.1
2019-03-10T22:58:30.951Z,24.8
2019-03-10T23:08:30.208Z,24.6
2019-03-10T23:18:29.414Z,24.6
2019-03-10T23:28:28.629Z,24.4
2019-03-10T23:38:27.854Z,24.4
2019-03-10T23:48:27.059Z,24.1
2019-03-10T23:58:26.274Z,24.4
